Time;durP1;ratioP1;P1;durP2;ratioP2;P2;SDS_P1;SDS_P2;PMS_P1;PMS_P2;Temp;Humidity;BMP_temperature;BMP_pressure;BME280_temperature;BME280_humidity;BME280_pressure;Samples;Min_cycle;Max_cycle;Signal;HPM_P1;HPM_P2
2023/06/05 00:02:55;;;;;;;4.90;2.80;;;;;;;7.81;64.05;100471.85;218614;1259;138338;-69
2023/06/05 00:08:00;;;;;;;13.60;4.30;;;;;;;7.72;64.13;100474.22;218295;1260;138987;-71
2023/06/05 00:13:03;;;;;;;4.10;3.30;;;;;;;7.63;64.53;100480.47;218130;1254;139863;-70
2023/06/05 00:18:06;;;;;;;10.00;4.20;;;;;;;7.46;64.21;100478.96;218605;1254;140116;-69
2023/06/05 00:23:13;;;;;;;4.30;3.10;;;;;;;7.40;65.19;100474.75;217836;1254;139929;-69
2023/06/05 00:28:16;;;;;;;8.60;3.40;;;;;;;7.37;64.93;100474.74;218284;1255;140625;-69
2023/06/05 00:33:19;;;;;;;7.90;3.50;;;;;;;7.26;65.23;100474.41;218100;1257;139317;-68
2023/06/05 00:38:22;;;;;;;6.80;5.40;;;;;;;7.15;65.22;100473.64;218958;1256;140310;-71
2023/06/05 00:43:26;;;;;;;7.40;4.60;;;;;;;7.05;65.47;100473.90;218142;1254;139503;-70
2023/06/05 00:48:31;;;;;;;5.40;3.40;;;;;;;6.98;65.58;100473.17;220344;1254;139950;-70
2023/06/05 00:53:36;;;;;;;7.00;2.90;;;;;;;6.97;66.02;100469.08;218804;1254;139895;-78
2023/06/05 00:58:40;;;;;;;5.70;3.40;;;;;;;6.94;65.90;100465.63;218401;1254;140358;-78
2023/06/05 01:03:44;;;;;;;7.40;4.20;;;;;;;6.87;66.17;100462.27;217979;1258;139398;-72
2023/06/05 01:08:50;;;;;;;8.70;4.10;;;;;;;6.85;66.15;100461.11;218405;1255;139930;-71
2023/06/05 01:14:12;;;;;;;4.70;3.40;;;;;;;6.82;66.16;100457.66;219614;1254;139077;-75
2023/06/05 01:19:17;;;;;;;6.50;3.40;;;;;;;6.75;66.46;100455.48;218775;1254;139580;-75
2023/06/05 01:24:22;;;;;;;5.40;3.60;;;;;;;6.69;66.49;100456.86;218658;1254;140433;-80
2023/06/05 01:29:35;;;;;;;10.70;5.30;;;;;;;6.67;66.88;100455.98;218395;1254;139486;-81
2023/06/05 01:34:43;;;;;;;3.60;3.10;;;;;;;6.59;67.26;100457.12;218219;1257;140254;-79
2023/06/05 01:39:47;;;;;;;;;;;;;;;6.52;67.02;100458.31;218113;1260;139545;-70
2023/06/05 01:44:50;;;;;;;12.20;4.80;;;;;;;6.46;67.15;100460.02;218753;1254;126106;-69
2023/06/05 01:49:54;;;;;;;11.20;4.90;;;;;;;6.37;67.41;100459.71;217897;1259;140180;-70
2023/06/05 01:54:59;;;;;;;11.10;3.70;;;;;;;6.30;67.70;100457.67;218166;1260;140371;-73
2023/06/05 02:00:08;;;;;;;9.90;4.90;;;;;;;6.23;67.81;100452.59;218013;1254;139862;-71
2023/06/05 02:05:13;;;;;;;7.10;3.90;;;;;;;6.20;68.03;100455.09;218427;1254;139750;-70
2023/06/05 02:10:18;;;;;;;5.50;4.00;;;;;;;6.18;68.30;100454.05;218019;1259;139383;-72
2023/06/05 02:15:23;;;;;;;13.40;4.50;;;;;;;6.16;68.43;100450.15;218428;1260;139685;-77
2023/06/05 02:20:28;;;;;;;8.90;5.00;;;;;;;6.10;68.41;100451.48;218045;1254;141037;-68
2023/06/05 02:25:32;;;;;;;9.40;4.80;;;;;;;6.02;68.77;100448.85;218253;1258;140897;-77
2023/06/05 02:30:37;;;;;;;6.10;4.40;;;;;;;5.94;68.80;100453.52;218161;1254;140110;-76
2023/06/05 02:35:40;;;;;;;8.70;5.10;;;;;;;5.87;69.11;100452.88;217881;1255;139705;-75
2023/06/05 02:40:44;;;;;;;6.60;3.40;;;;;;;5.86;69.12;100455.02;218452;1254;140038;-76
2023/06/05 02:45:47;;;;;;;15.50;6.00;;;;;;;5.83;69.19;100455.35;218421;1254;140333;-76
2023/06/05 02:50:51;;;;;;;22.80;5.90;;;;;;;5.81;69.65;100453.75;219893;1254;140664;-76
2023/06/05 02:55:55;;;;;;;3.90;3.60;;;;;;;5.84;69.70;100454.17;218863;1254;140207;-76
2023/06/05 03:01:01;;;;;;;7.00;4.40;;;;;;;5.88;69.67;100453.17;218894;1254;139719;-76
2023/06/05 03:06:06;;;;;;;6.80;4.40;;;;;;;5.90;69.54;100452.04;220784;1254;139727;-76
2023/06/05 03:11:10;;;;;;;7.10;4.20;;;;;;;5.98;69.83;100447.99;220681;1254;139103;-77
2023/06/05 03:16:14;;;;;;;7.50;4.10;;;;;;;6.09;69.96;100447.09;219176;1254;140096;-76
2023/06/05 03:21:17;;;;;;;9.80;4.10;;;;;;;6.21;69.88;100449.44;218145;1254;139954;-76
2023/06/05 03:26:22;;;;;;;9.10;4.80;;;;;;;6.31;70.20;100448.23;218462;1254;139622;-70
2023/06/05 03:31:25;;;;;;;8.50;5.00;;;;;;;6.41;70.39;100449.44;219163;1254;139562;-76
2023/06/05 03:36:29;;;;;;;5.40;3.10;;;;;;;6.55;70.55;100450.96;219431;1254;139627;-75
2023/06/05 03:41:33;;;;;;;3.70;3.10;;;;;;;6.78;70.54;100447.48;218129;1254;139619;-76
2023/06/05 03:46:38;;;;;;;9.20;4.20;;;;;;;7.16;70.45;100447.61;218525;1258;140820;-77
2023/06/05 03:51:45;;;;;;;7.70;3.50;;;;;;;7.48;70.52;100447.21;218328;1254;139470;-75
2023/06/05 03:56:52;;;;;;;7.50;4.40;;;;;;;7.85;70.56;100447.80;218062;1254;139949;-73
2023/06/05 04:01:57;;;;;;;6.50;4.60;;;;;;;8.20;70.40;100451.26;219074;1254;138914;-77
2023/06/05 04:07:01;;;;;;;5.10;3.60;;;;;;;8.62;70.07;100450.83;218429;1257;141174;-76
2023/06/05 04:12:05;;;;;;;7.70;4.30;;;;;;;8.78;70.33;100447.60;218257;1254;139468;-75
2023/06/05 04:17:08;;;;;;;7.90;3.80;;;;;;;9.34;69.88;100443.56;218262;1254;140532;-77
2023/06/05 04:22:12;;;;;;;7.70;5.00;;;;;;;10.58;68.74;100442.30;218154;1254;140813;-77
2023/06/05 04:27:17;;;;;;;4.50;4.00;;;;;;;11.37;68.03;100440.30;218299;1254;139448;-77
2023/06/05 04:32:21;;;;;;;4.50;3.50;;;;;;;12.44;66.82;100442.80;218122;1254;140726;-76
2023/06/05 04:37:24;;;;;;;6.20;4.00;;;;;;;13.31;65.57;100445.61;219362;1254;140961;-78
2023/06/05 04:42:27;;;;;;;10.00;4.70;;;;;;;15.66;62.86;100444.44;218333;1258;140880;-77
2023/06/05 04:47:31;;;;;;;8.60;3.50;;;;;;;16.41;61.57;100443.37;219234;1254;140438;-77
2023/06/05 04:52:35;;;;;;;9.90;3.90;;;;;;;17.06;60.21;100446.59;219278;1254;139615;-78
2023/06/05 04:57:39;;;;;;;4.80;3.00;;;;;;;17.52;58.61;100448.98;219750;1254;138968;-78
2023/06/05 05:02:41;;;;;;;4.60;3.50;;;;;;;18.07;57.49;100447.57;219549;1254;139651;-77
2023/06/05 05:07:45;;;;;;;9.10;3.60;;;;;;;19.90;55.18;100448.17;220029;1255;140194;-79
2023/06/05 05:12:49;;;;;;;7.30;3.10;;;;;;;23.31;51.39;100447.98;219134;1256;139717;-78
2023/06/05 05:17:51;;;;;;;16.00;4.30;;;;;;;26.74;47.52;100448.88;218419;1256;139752;-72
2023/06/05 05:22:58;;;;;;;12.20;3.70;;;;;;;29.79;43.54;100451.42;218841;1254;138693;-79
2023/06/05 05:28:02;;;;;;;6.10;2.30;;;;;;;32.20;39.44;100451.14;218052;1254;139449;-76
2023/06/05 05:33:05;;;;;;;7.40;2.50;;;;;;;33.98;36.14;100452.76;218054;1254;139347;-74
2023/06/05 05:38:08;;;;;;;8.00;2.40;;;;;;;35.29;33.06;100453.78;218730;1255;139048;-76
2023/06/05 05:43:13;;;;;;;8.60;1.90;;;;;;;36.71;31.40;100445.94;218735;1254;138935;-71
2023/06/05 05:48:17;;;;;;;4.60;2.00;;;;;;;37.89;29.09;100449.56;218700;1257;138557;-75
2023/06/05 05:53:23;;;;;;;5.50;2.00;;;;;;;38.92;27.76;100455.23;218289;1254;139104;-75
2023/06/05 05:58:28;;;;;;;10.00;2.00;;;;;;;39.99;25.74;100458.80;218345;1256;139332;-75
2023/06/05 06:03:34;;;;;;;2.50;1.40;;;;;;;40.77;24.66;100455.52;219086;1254;139145;-76
2023/06/05 06:08:38;;;;;;;3.70;1.40;;;;;;;41.25;22.82;100457.08;218144;1256;210096;-75
2023/06/05 06:13:43;;;;;;;3.40;1.20;;;;;;;41.54;22.26;100457.59;218351;1254;139011;-74
2023/06/05 06:18:47;;;;;;;3.40;1.20;;;;;;;42.11;20.95;100462.64;218208;1258;140863;-74
2023/06/05 06:23:50;;;;;;;14.40;1.50;;;;;;;42.32;19.81;100458.03;218098;1255;139011;-73
2023/06/05 06:28:57;;;;;;;4.40;1.50;;;;;;;42.39;19.27;100457.89;217977;1254;139035;-72
2023/06/05 06:34:01;;;;;;;7.00;2.10;;;;;;;42.25;18.67;100462.98;217962;1254;140014;-74
2023/06/05 06:39:05;;;;;;;7.20;1.40;;;;;;;41.95;18.36;100465.85;218256;1254;138737;-74
2023/06/05 06:44:11;;;;;;;3.90;1.10;;;;;;;41.28;17.98;100462.59;218070;1258;140142;-74
2023/06/05 06:49:14;;;;;;;1.90;1.10;;;;;;;41.13;17.86;100460.87;218042;1258;139911;-72
2023/06/05 06:54:21;;;;;;;10.80;2.90;;;;;;;41.35;17.77;100461.84;220099;1254;139083;-74
2023/06/05 06:59:26;;;;;;;3.90;1.20;;;;;;;41.17;17.18;100456.65;219392;1254;140122;-73
2023/06/05 07:04:29;;;;;;;1.60;1.50;;;;;;;40.95;16.98;100457.23;218155;1258;140695;-74
2023/06/05 07:09:32;;;;;;;3.60;1.00;;;;;;;40.81;16.79;100454.27;217993;1258;139615;-73
2023/06/05 07:14:35;;;;;;;7.00;0.90;;;;;;;40.85;16.47;100454.20;218748;1254;139513;-76
2023/06/05 07:19:39;;;;;;;3.80;0.90;;;;;;;40.75;16.35;100456.27;217969;1254;139213;-77
2023/06/05 07:24:45;;;;;;;4.90;0.50;;;;;;;40.07;16.40;100462.83;219041;1254;713481;-77
2023/06/05 07:29:49;;;;;;;8.60;1.50;;;;;;;38.97;16.77;100464.66;217682;1257;138971;-75
2023/06/05 07:34:53;;;;;;;0.80;0.80;;;;;;;37.50;17.01;100462.64;218262;1256;139249;-74
2023/06/05 07:39:55;;;;;;;;;;;;;;;36.36;17.85;100461.95;219013;1256;140129;-76
2023/06/05 07:44:58;;;;;;;0.70;0.50;;;;;;;35.32;18.36;100461.50;218054;1254;125989;-74
2023/06/05 07:50:03;;;;;;;;;;;;;;;34.76;18.45;100458.45;217601;1254;140139;-74
2023/06/05 07:55:07;;;;;;;3.90;0.90;;;;;;;33.98;19.41;100449.04;218156;1257;126281;-75
2023/06/05 08:00:10;;;;;;;4.20;1.00;;;;;;;32.69;19.84;100444.11;217710;1255;139094;-73
2023/06/05 08:05:14;;;;;;;2.60;1.30;;;;;;;32.28;20.27;100444.21;217880;1254;138771;-74
2023/06/05 08:10:18;;;;;;;4.90;1.00;;;;;;;32.26;20.15;100444.48;218189;1256;140640;-73
2023/06/05 08:15:22;;;;;;;1.50;1.00;;;;;;;32.16;20.26;100444.17;217776;1254;140253;-74
2023/06/05 08:20:27;;;;;;;4.30;1.10;;;;;;;32.09;20.27;100441.12;218599;1254;140128;-72
2023/06/05 08:25:32;;;;;;;0.60;0.60;;;;;;;31.81;20.21;100445.15;218731;1254;139890;-73
2023/06/05 08:30:35;;;;;;;1.20;0.90;;;;;;;31.53;20.32;100437.75;217864;1254;138498;-71
2023/06/05 08:35:42;;;;;;;1.60;0.80;;;;;;;31.36;20.39;100436.63;220455;1256;139611;-72
2023/06/05 08:40:50;;;;;;;1.70;0.90;;;;;;;31.19;20.50;100437.79;219299;1254;139267;-72
2023/06/05 08:45:56;;;;;;;2.70;1.10;;;;;;;31.07;20.90;100433.08;220022;1256;140280;-73
2023/06/05 08:51:01;;;;;;;1.20;0.90;;;;;;;30.50;21.20;100436.50;217717;1257;140380;-72
2023/06/05 08:56:05;;;;;;;4.40;1.20;;;;;;;30.02;21.73;100437.96;219577;1254;140099;-71
2023/06/05 09:01:10;;;;;;;1.70;1.00;;;;;;;30.05;21.17;100437.59;217584;1254;139700;-72
2023/06/05 09:06:14;;;;;;;2.20;1.00;;;;;;;30.03;21.61;100434.61;217996;1258;139782;-71
2023/06/05 09:11:26;;;;;;;6.60;1.30;;;;;;;29.85;21.80;100426.91;218029;1254;138967;-71
2023/06/05 09:16:43;;;;;;;1.60;1.00;;;;;;;29.77;22.27;100422.82;218564;1254;138848;-71
2023/06/05 09:21:54;;;;;;;2.50;1.20;;;;;;;29.70;21.96;100427.23;217898;1254;138966;-71
2023/06/05 09:27:02;;;;;;;8.40;1.50;;;;;;;29.79;22.40;100421.77;218265;1260;139073;-74
2023/06/05 09:32:10;;;;;;;2.50;1.40;;;;;;;29.77;22.08;100412.85;218315;1257;139982;-72
2023/06/05 09:37:13;;;;;;;2.10;1.20;;;;;;;29.80;22.35;100415.69;217951;1257;139544;-71
2023/06/05 09:42:15;;;;;;;2.60;1.30;;;;;;;29.60;21.86;100413.45;218176;1254;138676;-73
2023/06/05 09:47:23;;;;;;;1.40;1.30;;;;;;;29.39;22.53;100407.02;217725;1254;139776;-71
2023/06/05 09:52:26;;;;;;;2.40;0.90;;;;;;;29.26;22.30;100405.05;218546;1254;140651;-72
2023/06/05 09:57:32;;;;;;;5.60;0.90;;;;;;;29.12;22.45;100399.96;217768;1254;139173;-71
2023/06/05 10:02:36;;;;;;;4.70;1.70;;;;;;;28.99;22.87;100395.41;218648;1257;139705;-72
2023/06/05 10:07:40;;;;;;;2.50;1.30;;;;;;;28.60;22.95;100398.91;219306;1254;138805;-72
2023/06/05 10:12:44;;;;;;;2.20;1.20;;;;;;;28.58;23.56;100392.02;220063;1259;138998;-71
2023/06/05 10:17:49;;;;;;;1.30;1.20;;;;;;;28.87;23.70;100384.94;218582;1254;139999;-71
2023/06/05 10:22:52;;;;;;;2.10;0.80;;;;;;;29.13;23.45;100386.83;218417;1256;139097;-70
2023/06/05 10:28:49;;;;;;;1.10;1.00;;;;;;;29.15;23.79;100378.58;219779;1254;138790;-72
2023/06/05 10:34:09;;;;;;;5.60;1.40;;;;;;;28.72;23.71;100378.15;218196;1255;139106;-74
2023/06/05 10:39:13;;;;;;;1.50;1.10;;;;;;;28.64;23.75;100379.46;217982;1256;139383;-72
2023/06/05 10:44:16;;;;;;;5.00;1.30;;;;;;;28.71;23.57;100371.92;217564;1257;139145;-73
2023/06/05 10:49:21;;;;;;;1.20;1.10;;;;;;;28.66;23.61;100366.25;218052;1254;139185;-72
2023/06/05 10:54:24;;;;;;;1.50;1.40;;;;;;;28.72;23.55;100364.31;217989;1259;138986;-73
2023/06/05 10:59:32;;;;;;;1.30;1.20;;;;;;;28.77;23.09;100361.32;220012;1256;140456;-72
2023/06/05 11:04:48;;;;;;;2.20;1.80;;;;;;;28.79;22.83;100360.00;218716;1254;139380;-71
2023/06/05 11:10:15;;;;;;;2.40;1.50;;;;;;;28.63;22.57;100350.02;218999;1257;139018;-72
2023/06/05 11:15:23;;;;;;;1.60;1.50;;;;;;;28.50;23.16;100348.02;218219;1256;140597;-73
2023/06/05 11:20:32;;;;;;;11.20;1.50;;;;;;;28.42;23.27;100352.86;218730;1258;139981;-72
2023/06/05 11:25:36;;;;;;;1.00;1.00;;;;;;;28.24;23.50;100346.64;218129;1257;139882;-74
2023/06/05 11:30:45;;;;;;;1.20;1.10;;;;;;;28.25;23.23;100346.85;218215;1257;139486;-72
2023/06/05 11:35:59;;;;;;;1.30;1.10;;;;;;;28.15;23.05;100345.20;218138;1255;139013;-74
2023/06/05 11:41:08;;;;;;;1.50;1.40;;;;;;;28.11;23.84;100335.91;218819;1256;139648;-73
2023/06/05 11:46:16;;;;;;;1.60;1.30;;;;;;;28.09;24.15;100335.54;218211;1255;139647;-73
2023/06/05 11:51:19;;;;;;;5.40;1.60;;;;;;;28.03;23.56;100329.73;219368;1256;141104;-72
2023/06/05 11:56:22;;;;;;;1.70;1.60;;;;;;;28.07;23.60;100327.86;218180;1255;139681;-73
2023/06/05 12:01:31;;;;;;;2.20;1.30;;;;;;;28.16;23.69;100331.23;219006;1258;140651;-73
2023/06/05 12:06:43;;;;;;;11.70;2.40;;;;;;;28.13;23.44;100329.45;219011;1258;139130;-73
2023/06/05 12:11:48;;;;;;;4.30;1.70;;;;;;;28.13;23.46;100321.73;218279;1257;140217;-72
2023/06/05 12:16:50;;;;;;;2.50;2.10;;;;;;;28.21;23.49;100320.84;220822;1257;139862;-72
2023/06/05 12:22:04;;;;;;;3.20;1.10;;;;;;;28.12;23.48;100309.48;219294;1257;139706;-72
2023/06/05 12:27:09;;;;;;;2.90;1.40;;;;;;;27.99;23.43;100304.45;218643;1257;139202;-72
2023/06/05 12:32:25;;;;;;;94.60;10.60;;;;;;;28.01;23.57;100303.76;218047;1256;139247;-72
2023/06/05 12:37:38;;;;;;;9.20;1.20;;;;;;;27.98;23.28;100303.55;218943;1254;139929;-72
2023/06/05 12:42:43;;;;;;;1.90;1.50;;;;;;;27.94;23.19;100293.09;219185;1256;138848;-71
2023/06/05 12:47:46;;;;;;;1.40;1.30;;;;;;;27.77;22.91;100290.86;218402;1254;139546;-74
2023/06/05 12:52:51;;;;;;;1.50;1.40;;;;;;;27.69;23.40;100285.16;217936;1257;138707;-74
2023/06/05 12:57:54;;;;;;;6.90;1.80;;;;;;;27.76;23.82;100280.57;218360;1259;140224;-72
2023/06/05 13:02:56;;;;;;;5.30;1.70;;;;;;;27.73;23.53;100275.66;218148;1257;139147;-75
2023/06/05 13:07:59;;;;;;;1.90;1.50;;;;;;;27.69;23.63;100278.59;217686;1258;141223;-71
2023/06/05 13:13:05;;;;;;;9.20;1.80;;;;;;;27.64;23.60;100265.87;217987;1258;138815;-74
2023/06/05 13:18:09;;;;;;;1.60;1.20;;;;;;;27.55;23.64;100266.77;217933;1258;139024;-71
2023/06/05 13:23:12;;;;;;;2.50;1.30;;;;;;;27.42;23.62;100259.73;218203;1256;139796;-71
2023/06/05 13:28:15;;;;;;;3.60;1.70;;;;;;;27.37;23.79;100253.87;218601;1258;139113;-71
2023/06/05 13:33:19;;;;;;;2.20;1.60;;;;;;;27.36;23.68;100250.17;218002;1259;139300;-68
2023/06/05 13:38:23;;;;;;;1.70;1.60;;;;;;;27.20;23.62;100247.73;219195;1257;139353;-70
2023/06/05 13:43:28;;;;;;;1.90;1.40;;;;;;;27.09;23.89;100248.92;218743;1257;139122;-70
2023/06/05 13:48:30;;;;;;;3.00;1.50;;;;;;;27.05;24.60;100245.40;219988;1254;138911;-70
2023/06/05 13:53:36;;;;;;;1.40;1.30;;;;;;;27.10;24.46;100234.66;219177;1254;140527;-75
2023/06/05 13:58:44;;;;;;;2.30;1.50;;;;;;;27.11;24.63;100235.27;218456;1258;139274;-70
2023/06/05 14:03:50;;;;;;;28.30;3.50;;;;;;;27.10;24.48;100234.81;220873;1257;139207;-73
2023/06/05 14:08:55;;;;;;;2.90;1.70;;;;;;;27.04;24.44;100229.58;218731;1258;140101;-72
2023/06/05 14:13:59;;;;;;;1.60;1.50;;;;;;;26.89;24.42;100230.05;218979;1258;139173;-70
2023/06/05 14:19:03;;;;;;;4.50;2.10;;;;;;;26.68;24.37;100218.45;219767;1258;141418;-76
2023/06/05 14:24:07;;;;;;;4.20;2.50;;;;;;;26.57;24.41;100213.40;218170;1257;139828;-76
2023/06/05 14:29:12;;;;;;;2.30;1.90;;;;;;;26.47;24.67;100205.49;220353;1259;138960;-73
2023/06/05 14:34:15;;;;;;;1.40;1.30;;;;;;;26.41;24.45;100206.69;220525;1257;139076;-82
2023/06/05 14:39:22;;;;;;;9.00;1.90;;;;;;;26.38;24.56;100204.50;218394;1259;140454;-74
2023/06/05 14:44:29;;;;;;;2.50;1.90;;;;;;;26.37;24.57;100196.76;218851;1258;139070;-83
2023/06/05 14:49:32;;;;;;;1.60;1.50;;;;;;;26.38;24.55;100194.35;219020;1257;140386;-75
2023/06/05 14:54:35;;;;;;;3.40;1.60;;;;;;;26.34;24.37;100193.04;219240;1257;139126;-71
2023/06/05 14:59:40;;;;;;;2.50;1.50;;;;;;;26.31;24.68;100190.54;219025;1254;139595;-73
2023/06/05 15:04:46;;;;;;;1.50;1.40;;;;;;;26.27;24.61;100188.60;218225;1254;138990;-78
2023/06/05 15:09:50;;;;;;;5.10;1.50;;;;;;;26.24;24.78;100184.85;218143;1256;139769;-71
2023/06/05 15:14:57;;;;;;;3.20;1.40;;;;;;;26.22;24.69;100181.22;218107;1254;139331;-74
2023/06/05 15:20:24;;;;;;;5.70;1.60;;;;;;;26.16;24.87;100180.95;218143;1254;139155;-73
2023/06/05 15:25:27;;;;;;;2.70;1.60;;;;;;;26.12;24.71;100176.56;218838;1257;234695;-69
2023/06/05 15:30:30;;;;;;;1.30;1.20;;;;;;;26.05;25.07;100175.86;217964;1254;139559;-70
2023/06/05 15:35:42;;;;;;;1.60;1.50;;;;;;;25.97;25.18;100179.92;217848;1259;139634;-71
2023/06/05 15:40:45;;;;;;;1.80;1.20;;;;;;;25.88;25.10;100177.29;218364;1257;139671;-72
2023/06/05 15:45:49;;;;;;;2.10;1.90;;;;;;;25.82;25.79;100172.48;218472;1257;140211;-69
2023/06/05 15:50:57;;;;;;;4.60;2.20;;;;;;;25.72;25.63;100171.38;218302;1257;140182;-71
2023/06/05 15:56:01;;;;;;;13.60;2.40;;;;;;;25.63;25.63;100167.29;217888;1259;138561;-72
2023/06/05 16:01:06;;;;;;;4.30;1.80;;;;;;;25.57;25.64;100162.88;218073;1258;140770;-72
2023/06/05 16:06:09;;;;;;;5.00;1.70;;;;;;;25.47;25.63;100165.04;218634;1259;139965;-74
2023/06/05 16:11:12;;;;;;;1.00;1.00;;;;;;;25.35;25.70;100163.94;218180;1259;139169;-73
2023/06/05 16:16:18;;;;;;;5.10;1.50;;;;;;;25.24;25.89;100162.98;217680;1260;139425;-76
2023/06/05 16:21:24;;;;;;;1.70;1.60;;;;;;;25.19;26.10;100160.36;219113;1257;139467;-75
2023/06/05 16:26:31;;;;;;;3.30;1.20;;;;;;;25.18;26.16;100160.16;218821;1259;141728;-73
2023/06/05 16:31:39;;;;;;;3.10;1.70;;;;;;;25.12;26.31;100160.19;218911;1254;139480;-72
2023/06/05 16:36:43;;;;;;;157.40;14.50;;;;;;;25.05;26.45;100161.77;218282;1260;139329;-73
2023/06/05 16:41:47;;;;;;;5.60;1.90;;;;;;;24.97;26.86;100164.58;218232;1259;139226;-71
2023/06/05 16:46:51;;;;;;;2.10;1.90;;;;;;;24.88;27.04;100168.34;218595;1259;140825;-67
2023/06/05 16:51:54;;;;;;;3.50;1.40;;;;;;;24.76;26.94;100160.86;218204;1256;139863;-66
2023/06/05 16:56:58;;;;;;;2.40;2.20;;;;;;;24.67;27.37;100160.80;219013;1260;139328;-66
2023/06/05 17:02:02;;;;;;;2.90;1.90;;;;;;;24.56;27.53;100161.29;218090;1259;139405;-70
2023/06/05 17:07:07;;;;;;;4.50;1.70;;;;;;;24.43;27.68;100157.23;218660;1255;138385;-68
2023/06/05 17:12:13;;;;;;;42.50;5.30;;;;;;;24.29;27.93;100157.23;218056;1254;139549;-68
2023/06/05 17:17:18;;;;;;;10.50;2.40;;;;;;;24.14;28.29;100157.48;218229;1260;140703;-70
2023/06/05 17:22:22;;;;;;;42.40;4.40;;;;;;;24.01;28.35;100161.38;218634;1260;142110;-66
2023/06/05 17:27:26;;;;;;;2.70;1.80;;;;;;;23.88;28.71;100159.21;218510;1260;139512;-69
2023/06/05 17:32:31;;;;;;;1.60;1.50;;;;;;;23.73;29.07;100159.95;217996;1254;139481;-67
2023/06/05 17:37:36;;;;;;;;;;;;;;;23.53;29.65;100156.67;218041;1258;139349;-67
2023/06/05 17:42:40;;;;;;;7.60;2.00;;;;;;;23.25;30.69;100160.11;219914;1255;125428;-68
2023/06/05 17:47:44;;;;;;;2.80;1.90;;;;;;;23.00;31.31;100158.08;218082;1258;138946;-73
2023/06/05 17:52:50;;;;;;;4.20;1.40;;;;;;;22.72;32.05;100162.66;218459;1257;140006;-80
2023/06/05 17:58:03;;;;;;;12.10;2.10;;;;;;;22.45;32.57;100160.52;218795;1254;139453;-77
2023/06/05 18:03:10;;;;;;;5.90;2.90;;;;;;;22.18;33.21;100158.71;218908;1255;139923;-75
2023/06/05 18:08:15;;;;;;;2.60;2.40;;;;;;;21.91;33.95;100165.61;218373;1254;140173;-77
2023/06/05 18:13:19;;;;;;;8.50;2.80;;;;;;;21.60;34.54;100160.34;218181;1260;138855;-79
2023/06/05 18:18:22;;;;;;;13.60;2.90;;;;;;;21.32;35.16;100168.12;218275;1255;140003;-76
2023/06/05 18:23:26;;;;;;;9.80;2.80;;;;;;;21.05;35.73;100169.09;218577;1257;139197;-80
2023/06/05 18:28:30;;;;;;;6.60;2.40;;;;;;;20.78;36.17;100174.52;218664;1254;139345;-85
2023/06/05 18:33:35;;;;;;;6.40;2.20;;;;;;;20.53;36.61;100177.28;218639;1258;138878;-84
2023/06/05 18:38:40;;;;;;;8.00;2.20;;;;;;;20.30;37.31;100178.98;218370;1259;138856;-84
2023/06/05 18:43:47;;;;;;;;;;;;;;;20.07;37.48;100178.10;218473;1257;138554;-80
2023/06/05 18:48:53;;;;;;;11.80;2.30;;;;;;;19.81;37.93;100183.27;219162;1255;125685;-71
2023/06/05 18:54:00;;;;;;;6.50;2.60;;;;;;;19.59;38.52;100183.52;218602;1254;140416;-70
2023/06/05 18:59:02;;;;;;;3.30;1.90;;;;;;;19.36;39.03;100188.54;218397;1259;139441;-70
2023/06/05 19:04:12;;;;;;;7.00;2.10;;;;;;;19.15;39.23;100193.77;218436;1259;139647;-70
2023/06/05 19:09:23;;;;;;;13.10;4.30;;;;;;;18.92;39.39;100197.79;218516;1259;139974;-73
2023/06/05 19:14:28;;;;;;;12.10;7.80;;;;;;;18.71;39.71;100200.55;217944;1259;140425;-72
2023/06/05 19:19:34;;;;;;;17.50;11.50;;;;;;;18.51;40.09;100204.80;219227;1255;140364;-79
2023/06/05 19:24:37;;;;;;;23.40;14.30;;;;;;;18.32;40.80;100201.25;218268;1254;387692;-71
2023/06/05 19:29:42;;;;;;;17.60;13.60;;;;;;;18.12;41.15;100206.05;218219;1254;139649;-69
2023/06/05 19:34:46;;;;;;;20.70;9.70;;;;;;;17.92;41.68;100211.75;218545;1254;140736;-74
2023/06/05 19:39:50;;;;;;;11.70;5.50;;;;;;;17.72;42.46;100207.86;218661;1254;139416;-74
2023/06/05 19:44:53;;;;;;;12.60;8.30;;;;;;;17.53;42.63;100202.50;218072;1254;139787;-77
2023/06/05 19:49:58;;;;;;;15.50;9.50;;;;;;;17.36;43.28;100203.64;219069;1254;140312;-73
2023/06/05 19:55:06;;;;;;;26.10;15.20;;;;;;;17.19;43.80;100206.29;219343;1255;139689;-74
2023/06/05 20:00:13;;;;;;;31.00;20.00;;;;;;;17.04;44.29;100207.99;219010;1254;139559;-72
2023/06/05 20:05:20;;;;;;;36.40;22.20;;;;;;;16.89;44.67;100208.75;218758;1254;139558;-71
2023/06/05 20:10:23;;;;;;;39.50;22.30;;;;;;;16.73;45.42;100212.31;219394;1254;140523;-72
2023/06/05 20:15:28;;;;;;;39.10;24.70;;;;;;;16.59;45.72;100215.82;218044;1259;139213;-70
2023/06/05 20:20:32;;;;;;;38.80;25.90;;;;;;;16.45;45.87;100218.34;219792;1254;141529;-72
2023/06/05 20:25:36;;;;;;;43.30;24.80;;;;;;;16.31;46.35;100223.27;218256;1254;138889;-76
2023/06/05 20:30:41;;;;;;;40.90;21.00;;;;;;;16.18;46.77;100222.01;219291;1253;140414;-71
2023/06/05 20:35:50;;;;;;;31.10;14.50;;;;;;;16.03;47.15;100223.26;218096;1254;139796;-74
2023/06/05 20:40:55;;;;;;;17.20;10.80;;;;;;;15.88;47.56;100228.52;218906;1254;139941;-78
2023/06/05 20:46:02;;;;;;;16.80;8.30;;;;;;;15.72;48.19;100233.29;218616;1255;139511;-73
2023/06/05 20:51:18;;;;;;;18.70;8.50;;;;;;;15.57;48.83;100228.91;218154;1254;139750;-78
2023/06/05 20:56:27;;;;;;;9.40;5.70;;;;;;;15.41;49.12;100228.52;217917;1259;139227;-72
2023/06/05 21:01:45;;;;;;;14.60;4.90;;;;;;;15.24;49.67;100228.14;218032;1258;139327;-70
2023/06/05 21:06:50;;;;;;;12.20;5.40;;;;;;;15.06;49.97;100227.63;218124;1254;141139;-70
2023/06/05 21:11:54;;;;;;;8.10;4.50;;;;;;;14.88;50.54;100229.20;218066;1257;139198;-69
2023/06/05 21:17:00;;;;;;;11.00;5.00;;;;;;;14.71;51.14;100228.02;218813;1254;140203;-68
2023/06/05 21:22:05;;;;;;;8.10;4.20;;;;;;;14.57;51.54;100228.28;218324;1254;139441;-68
2023/06/05 21:27:10;;;;;;;12.30;4.40;;;;;;;14.40;51.91;100229.48;218445;1254;139965;-69
2023/06/05 21:32:14;;;;;;;12.50;4.40;;;;;;;14.25;52.36;100231.63;218586;1258;139954;-78
2023/06/05 21:37:20;;;;;;;11.50;4.60;;;;;;;14.10;53.09;100222.77;218472;1254;139413;-80
2023/06/05 21:42:24;;;;;;;12.20;3.60;;;;;;;13.99;53.54;100226.85;218465;1254;139565;-81
2023/06/05 21:47:29;;;;;;;10.20;4.40;;;;;;;13.78;53.90;100232.52;218428;1259;140630;-81
2023/06/05 21:52:34;;;;;;;9.70;3.80;;;;;;;13.55;54.78;100232.56;218718;1259;140574;-82
2023/06/05 21:57:37;;;;;;;5.90;4.30;;;;;;;13.47;55.40;100232.74;218914;1254;139128;-80
2023/06/05 22:02:40;;;;;;;7.10;4.10;;;;;;;13.40;55.71;100228.68;218703;1254;140031;-81
2023/06/05 22:07:43;;;;;;;9.50;4.00;;;;;;;13.32;56.15;100224.66;220331;1254;139819;-82
2023/06/05 22:12:46;;;;;;;7.80;3.30;;;;;;;13.26;56.45;100224.30;219851;1255;139803;-81
2023/06/05 22:17:51;;;;;;;10.00;3.70;;;;;;;13.16;56.76;100226.66;218254;1253;139690;-81
2023/06/05 22:22:54;;;;;;;19.30;4.10;;;;;;;13.01;57.11;100229.68;219120;1254;139703;-82
2023/06/05 22:27:59;;;;;;;6.40;3.40;;;;;;;12.94;57.55;100227.77;218151;1257;139776;-83
2023/06/05 22:33:02;;;;;;;5.80;4.90;;;;;;;12.87;57.47;100225.00;217964;1258;139164;-76
2023/06/05 22:38:05;;;;;;;7.30;4.00;;;;;;;12.74;57.61;100220.00;218084;1254;139761;-80
2023/06/05 22:43:08;;;;;;;14.80;4.90;;;;;;;12.60;57.75;100216.91;218217;1254;139742;-79
2023/06/05 22:48:12;;;;;;;6.30;3.70;;;;;;;12.51;58.61;100215.77;218207;1257;140475;-77
2023/06/05 22:53:15;;;;;;;6.30;3.50;;;;;;;12.48;58.77;100217.48;217996;1254;139042;-78
2023/06/05 22:58:18;;;;;;;3.40;3.00;;;;;;;12.39;58.68;100217.51;218082;1254;138853;-73
2023/06/05 23:03:22;;;;;;;5.50;2.60;;;;;;;12.30;58.65;100217.56;218075;1257;139172;-71
2023/06/05 23:08:25;;;;;;;4.90;3.40;;;;;;;12.20;58.96;100222.48;218354;1257;139382;-71